sensor_id;sensor_type;location;lat;lon;timestamp;P1;durP1;ratioP1;P2;durP2;ratioP2
2486;SDS011;1254;49.144;8.212;2023-04-15T00:01:44;4.25;;;3.13;;
2486;SDS011;1254;49.144;8.212;2023-04-15T00:04:13;9.27;;;4.20;;
2486;SDS011;1254;49.144;8.212;2023-04-15T00:06:41;10.30;;;4.28;;
2486;SDS011;1254;49.144;8.212;2023-04-15T00:09:10;9.85;;;4.20;;
2486;SDS011;1254;49.144;8.212;2023-04-15T00:11:38;9.45;;;4.50;;
2486;SDS011;1254;49.144;8.212;2023-04-15T00:14:06;5.60;;;4.40;;
2486;SDS011;1254;49.144;8.212;2023-04-15T00:16:36;4.95;;;3.90;;
2486;SDS011;1254;49.144;8.212;2023-04-15T00:19:04;5.38;;;3.42;;
2486;SDS011;1254;49.144;8.212;2023-04-15T00:21:32;4.95;;;2.80;;
2486;SDS011;1254;49.144;8.212;2023-04-15T00:24:01;4.65;;;3.10;;
2486;SDS011;1254;49.144;8.212;2023-04-15T00:26:29;4.57;;;3.78;;
2486;SDS011;1254;49.144;8.212;2023-04-15T00:28:59;9.18;;;3.58;;
2486;SDS011;1254;49.144;8.212;2023-04-15T00:31:27;3.55;;;3.25;;
2486;SDS011;1254;49.144;8.212;2023-04-15T00:33:57;5.80;;;3.55;;
2486;SDS011;1254;49.144;8.212;2023-04-15T00:36:25;4.93;;;3.75;;
2486;SDS011;1254;49.144;8.212;2023-04-15T00:38:53;6.30;;;3.00;;
2486;SDS011;1254;49.144;8.212;2023-04-15T00:41:21;3.42;;;3.13;;
2486;SDS011;1254;49.144;8.212;2023-04-15T00:43:50;4.43;;;3.05;;
2486;SDS011;1254;49.144;8.212;2023-04-15T00:46:20;6.82;;;3.40;;
2486;SDS011;1254;49.144;8.212;2023-04-15T00:48:50;3.20;;;2.83;;
2486;SDS011;1254;49.144;8.212;2023-04-15T00:51:19;3.17;;;2.90;;
2486;SDS011;1254;49.144;8.212;2023-04-15T00:53:47;4.93;;;3.42;;
2486;SDS011;1254;49.144;8.212;2023-04-15T00:56:16;3.25;;;2.95;;
2486;SDS011;1254;49.144;8.212;2023-04-15T00:58:46;5.35;;;3.17;;
2486;SDS011;1254;49.144;8.212;2023-04-15T01:01:15;5.40;;;3.10;;
2486;SDS011;1254;49.144;8.212;2023-04-15T01:03:43;4.32;;;3.47;;
2486;SDS011;1254;49.144;8.212;2023-04-15T01:06:11;7.85;;;3.55;;
2486;SDS011;1254;49.144;8.212;2023-04-15T01:08:42;13.13;;;6.03;;
2486;SDS011;1254;49.144;8.212;2023-04-15T01:11:11;3.05;;;2.58;;
2486;SDS011;1254;49.144;8.212;2023-04-15T01:13:39;4.95;;;2.85;;
2486;SDS011;1254;49.144;8.212;2023-04-15T01:16:08;6.75;;;3.95;;
2486;SDS011;1254;49.144;8.212;2023-04-15T01:18:36;4.90;;;2.80;;
2486;SDS011;1254;49.144;8.212;2023-04-15T01:21:06;4.80;;;2.80;;
2486;SDS011;1254;49.144;8.212;2023-04-15T01:23:35;8.35;;;2.95;;
2486;SDS011;1254;49.144;8.212;2023-04-15T01:26:05;3.97;;;3.65;;
2486;SDS011;1254;49.144;8.212;2023-04-15T01:28:34;3.25;;;2.95;;
2486;SDS011;1254;49.144;8.212;2023-04-15T01:31:05;4.40;;;3.10;;
2486;SDS011;1254;49.144;8.212;2023-04-15T01:33:36;5.20;;;3.00;;
2486;SDS011;1254;49.144;8.212;2023-04-15T01:36:24;9.32;;;3.17;;
2486;SDS011;1254;49.144;8.212;2023-04-15T01:38:53;3.35;;;3.05;;
2486;SDS011;1254;49.144;8.212;2023-04-15T01:41:25;4.18;;;3.65;;
2486;SDS011;1254;49.144;8.212;2023-04-15T01:43:55;7.20;;;3.50;;
2486;SDS011;1254;49.144;8.212;2023-04-15T01:46:24;5.43;;;2.97;;
2486;SDS011;1254;49.144;8.212;2023-04-15T01:48:54;5.35;;;3.10;;
2486;SDS011;1254;49.144;8.212;2023-04-15T01:51:25;3.30;;;2.95;;
2486;SDS011;1254;49.144;8.212;2023-04-15T01:53:55;5.13;;;3.00;;
2486;SDS011;1254;49.144;8.212;2023-04-15T01:56:26;4.13;;;3.25;;
2486;SDS011;1254;49.144;8.212;2023-04-15T01:58:56;4.85;;;3.05;;
2486;SDS011;1254;49.144;8.212;2023-04-15T02:01:25;5.82;;;3.00;;
2486;SDS011;1254;49.144;8.212;2023-04-15T02:03:55;4.10;;;3.38;;
2486;SDS011;1254;49.144;8.212;2023-04-15T02:06:25;2.70;;;2.50;;
2486;SDS011;1254;49.144;8.212;2023-04-15T02:08:56;3.45;;;2.95;;
2486;SDS011;1254;49.144;8.212;2023-04-15T02:11:27;4.82;;;2.70;;
2486;SDS011;1254;49.144;8.212;2023-04-15T02:13:57;3.38;;;2.53;;
2486;SDS011;1254;49.144;8.212;2023-04-15T02:16:27;3.50;;;3.20;;
2486;SDS011;1254;49.144;8.212;2023-04-15T02:18:56;12.63;;;3.70;;
2486;SDS011;1254;49.144;8.212;2023-04-15T02:21:26;4.15;;;3.05;;
2486;SDS011;1254;49.144;8.212;2023-04-15T02:23:55;3.05;;;2.75;;
2486;SDS011;1254;49.144;8.212;2023-04-15T02:26:25;5.80;;;3.22;;
2486;SDS011;1254;49.144;8.212;2023-04-15T02:28:56;4.93;;;2.80;;
2486;SDS011;1254;49.144;8.212;2023-04-15T02:31:26;6.10;;;3.00;;
2486;SDS011;1254;49.144;8.212;2023-04-15T02:33:55;3.72;;;3.00;;
2486;SDS011;1254;49.144;8.212;2023-04-15T02:36:25;4.35;;;2.78;;
2486;SDS011;1254;49.144;8.212;2023-04-15T02:38:56;4.47;;;3.25;;
2486;SDS011;1254;49.144;8.212;2023-04-15T02:41:27;6.10;;;3.00;;
2486;SDS011;1254;49.144;8.212;2023-04-15T02:43:59;4.63;;;3.50;;
2486;SDS011;1254;49.144;8.212;2023-04-15T02:46:30;5.07;;;3.13;;
2486;SDS011;1254;49.144;8.212;2023-04-15T02:49:00;8.52;;;3.58;;
2486;SDS011;1254;49.144;8.212;2023-04-15T02:51:30;3.78;;;2.75;;
2486;SDS011;1254;49.144;8.212;2023-04-15T02:53:59;6.65;;;2.92;;
2486;SDS011;1254;49.144;8.212;2023-04-15T02:56:29;6.15;;;3.20;;
2486;SDS011;1254;49.144;8.212;2023-04-15T02:59:00;3.10;;;2.80;;
2486;SDS011;1254;49.144;8.212;2023-04-15T03:01:29;16.55;;;3.72;;
2486;SDS011;1254;49.144;8.212;2023-04-15T03:03:59;3.30;;;2.80;;
2486;SDS011;1254;49.144;8.212;2023-04-15T03:06:29;3.75;;;3.25;;
2486;SDS011;1254;49.144;8.212;2023-04-15T03:08:58;6.55;;;2.92;;
2486;SDS011;1254;49.144;8.212;2023-04-15T03:11:31;4.68;;;3.10;;
2486;SDS011;1254;49.144;8.212;2023-04-15T03:14:03;4.43;;;3.50;;
2486;SDS011;1254;49.144;8.212;2023-04-15T03:16:35;4.13;;;2.97;;
2486;SDS011;1254;49.144;8.212;2023-04-15T03:19:05;7.93;;;3.08;;
2486;SDS011;1254;49.144;8.212;2023-04-15T03:21:35;3.28;;;2.97;;
2486;SDS011;1254;49.144;8.212;2023-04-15T03:24:05;4.03;;;3.08;;
2486;SDS011;1254;49.144;8.212;2023-04-15T03:26:34;2.92;;;2.70;;
2486;SDS011;1254;49.144;8.212;2023-04-15T03:29:12;3.72;;;2.70;;
2486;SDS011;1254;49.144;8.212;2023-04-15T03:31:41;9.75;;;5.57;;
2486;SDS011;1254;49.144;8.212;2023-04-15T03:34:12;3.67;;;3.13;;
2486;SDS011;1254;49.144;8.212;2023-04-15T03:36:41;4.40;;;3.10;;
2486;SDS011;1254;49.144;8.212;2023-04-15T03:39:11;5.75;;;3.33;;
2486;SDS011;1254;49.144;8.212;2023-04-15T03:41:40;8.85;;;3.00;;
2486;SDS011;1254;49.144;8.212;2023-04-15T03:44:11;3.17;;;2.88;;
2486;SDS011;1254;49.144;8.212;2023-04-15T03:46:41;4.80;;;3.53;;
2486;SDS011;1254;49.144;8.212;2023-04-15T03:49:10;5.65;;;3.55;;
2486;SDS011;1254;49.144;8.212;2023-04-15T03:51:40;3.85;;;3.22;;
2486;SDS011;1254;49.144;8.212;2023-04-15T03:54:10;5.38;;;3.83;;
2486;SDS011;1254;49.144;8.212;2023-04-15T03:56:41;10.48;;;4.05;;
2486;SDS011;1254;49.144;8.212;2023-04-15T03:59:12;4.00;;;3.70;;
2486;SDS011;1254;49.144;8.212;2023-04-15T04:01:42;8.40;;;6.25;;
2486;SDS011;1254;49.144;8.212;2023-04-15T04:04:11;9.63;;;7.28;;
2486;SDS011;1254;49.144;8.212;2023-04-15T04:06:41;4.30;;;3.50;;
2486;SDS011;1254;49.144;8.212;2023-04-15T04:09:10;9.38;;;6.10;;
2486;SDS011;1254;49.144;8.212;2023-04-15T04:11:39;4.78;;;4.35;;
2486;SDS011;1254;49.144;8.212;2023-04-15T04:14:09;5.28;;;3.08;;
2486;SDS011;1254;49.144;8.212;2023-04-15T04:16:40;4.47;;;3.05;;
2486;SDS011;1254;49.144;8.212;2023-04-15T04:19:09;8.00;;;3.28;;
2486;SDS011;1254;49.144;8.212;2023-04-15T04:21:39;4.47;;;4.05;;
2486;SDS011;1254;49.144;8.212;2023-04-15T04:24:08;2.75;;;2.55;;
2486;SDS011;1254;49.144;8.212;2023-04-15T04:26:37;8.13;;;2.92;;
2486;SDS011;1254;49.144;8.212;2023-04-15T04:29:07;3.13;;;2.70;;
2486;SDS011;1254;49.144;8.212;2023-04-15T04:31:37;3.72;;;2.20;;
2486;SDS011;1254;49.144;8.212;2023-04-15T04:34:08;4.85;;;2.15;;
2486;SDS011;1254;49.144;8.212;2023-04-15T04:36:37;3.38;;;2.03;;
2486;SDS011;1254;49.144;8.212;2023-04-15T04:39:07;3.90;;;2.70;;
2486;SDS011;1254;49.144;8.212;2023-04-15T04:41:36;4.20;;;3.55;;
2486;SDS011;1254;49.144;8.212;2023-04-15T04:44:06;3.38;;;2.72;;
2486;SDS011;1254;49.144;8.212;2023-04-15T04:46:35;3.60;;;2.95;;
2486;SDS011;1254;49.144;8.212;2023-04-15T04:49:05;5.35;;;2.58;;
2486;SDS011;1254;49.144;8.212;2023-04-15T04:51:36;9.27;;;3.15;;
2486;SDS011;1254;49.144;8.212;2023-04-15T04:54:05;4.47;;;2.92;;
2486;SDS011;1254;49.144;8.212;2023-04-15T04:56:35;8.50;;;3.17;;
2486;SDS011;1254;49.144;8.212;2023-04-15T04:59:06;3.20;;;2.60;;
2486;SDS011;1254;49.144;8.212;2023-04-15T05:01:35;4.20;;;3.03;;
2486;SDS011;1254;49.144;8.212;2023-04-15T05:04:05;3.80;;;2.53;;
2486;SDS011;1254;49.144;8.212;2023-04-15T05:06:36;5.38;;;2.95;;
2486;SDS011;1254;49.144;8.212;2023-04-15T05:09:05;4.45;;;2.70;;
2486;SDS011;1254;49.144;8.212;2023-04-15T05:11:35;6.10;;;3.10;;
2486;SDS011;1254;49.144;8.212;2023-04-15T05:14:04;4.68;;;2.53;;
2486;SDS011;1254;49.144;8.212;2023-04-15T05:16:33;5.80;;;3.20;;
2486;SDS011;1254;49.144;8.212;2023-04-15T05:19:03;13.23;;;3.50;;
2486;SDS011;1254;49.144;8.212;2023-04-15T05:21:34;3.17;;;2.90;;
2486;SDS011;1254;49.144;8.212;2023-04-15T05:24:05;4.47;;;3.03;;
2486;SDS011;1254;49.144;8.212;2023-04-15T05:26:34;2.92;;;2.72;;
2486;SDS011;1254;49.144;8.212;2023-04-15T05:29:04;4.10;;;3.50;;
2486;SDS011;1254;49.144;8.212;2023-04-15T05:31:33;7.20;;;3.40;;
2486;SDS011;1254;49.144;8.212;2023-04-15T05:34:03;7.45;;;4.30;;
2486;SDS011;1254;49.144;8.212;2023-04-15T05:36:33;4.60;;;2.83;;
2486;SDS011;1254;49.144;8.212;2023-04-15T05:39:02;4.63;;;4.20;;
2486;SDS011;1254;49.144;8.212;2023-04-15T05:41:33;6.93;;;4.40;;
2486;SDS011;1254;49.144;8.212;2023-04-15T05:44:03;5.75;;;4.03;;
2486;SDS011;1254;49.144;8.212;2023-04-15T05:46:32;6.00;;;4.35;;
2486;SDS011;1254;49.144;8.212;2023-04-15T05:49:02;5.47;;;3.70;;
2486;SDS011;1254;49.144;8.212;2023-04-15T05:51:31;4.75;;;3.83;;
2486;SDS011;1254;49.144;8.212;2023-04-15T05:54:01;5.50;;;3.40;;
2486;SDS011;1254;49.144;8.212;2023-04-15T05:56:30;4.80;;;3.65;;
2486;SDS011;1254;49.144;8.212;2023-04-15T05:59:01;7.35;;;4.25;;
2486;SDS011;1254;49.144;8.212;2023-04-15T06:01:31;3.95;;;3.58;;
2486;SDS011;1254;49.144;8.212;2023-04-15T06:04:02;17.33;;;9.30;;
2486;SDS011;1254;49.144;8.212;2023-04-15T06:06:31;10.77;;;5.50;;
2486;SDS011;1254;49.144;8.212;2023-04-15T06:09:01;8.68;;;5.43;;
2486;SDS011;1254;49.144;8.212;2023-04-15T06:11:30;7.45;;;5.78;;
2486;SDS011;1254;49.144;8.212;2023-04-15T06:14:01;9.55;;;5.13;;
2486;SDS011;1254;49.144;8.212;2023-04-15T06:16:31;5.60;;;5.10;;
2486;SDS011;1254;49.144;8.212;2023-04-15T06:19:00;6.70;;;5.93;;
2486;SDS011;1254;49.144;8.212;2023-04-15T06:21:29;6.22;;;5.63;;
2486;SDS011;1254;49.144;8.212;2023-04-15T06:23:59;8.18;;;5.30;;
2486;SDS011;1254;49.144;8.212;2023-04-15T06:26:29;5.72;;;5.15;;
2486;SDS011;1254;49.144;8.212;2023-04-15T06:28:59;8.23;;;6.10;;
2486;SDS011;1254;49.144;8.212;2023-04-15T06:31:30;7.93;;;6.20;;
2486;SDS011;1254;49.144;8.212;2023-04-15T06:33:59;9.38;;;6.38;;
2486;SDS011;1254;49.144;8.212;2023-04-15T06:36:29;7.88;;;6.97;;
2486;SDS011;1254;49.144;8.212;2023-04-15T06:38:58;13.95;;;5.57;;
2486;SDS011;1254;49.144;8.212;2023-04-15T06:41:29;8.15;;;6.28;;
2486;SDS011;1254;49.144;8.212;2023-04-15T06:43:58;8.80;;;6.80;;
2486;SDS011;1254;49.144;8.212;2023-04-15T06:46:29;12.80;;;6.28;;
2486;SDS011;1254;49.144;8.212;2023-04-15T06:48:59;9.88;;;5.60;;
2486;SDS011;1254;49.144;8.212;2023-04-15T06:51:28;8.10;;;5.78;;
2486;SDS011;1254;49.144;8.212;2023-04-15T06:53:59;11.13;;;6.30;;
2486;SDS011;1254;49.144;8.212;2023-04-15T06:56:28;7.47;;;6.07;;
2486;SDS011;1254;49.144;8.212;2023-04-15T06:58:58;6.72;;;6.03;;
2486;SDS011;1254;49.144;8.212;2023-04-15T07:01:27;11.65;;;6.68;;
2486;SDS011;1254;49.144;8.212;2023-04-15T07:03:58;10.57;;;6.05;;
2486;SDS011;1254;49.144;8.212;2023-04-15T07:06:28;6.90;;;6.03;;
2486;SDS011;1254;49.144;8.212;2023-04-15T07:08:57;12.05;;;5.75;;
2486;SDS011;1254;49.144;8.212;2023-04-15T07:11:28;6.88;;;5.80;;
2486;SDS011;1254;49.144;8.212;2023-04-15T07:13:57;7.05;;;5.70;;
2486;SDS011;1254;49.144;8.212;2023-04-15T07:16:27;7.93;;;6.55;;
2486;SDS011;1254;49.144;8.212;2023-04-15T07:18:56;7.20;;;5.93;;
2486;SDS011;1254;49.144;8.212;2023-04-15T07:21:27;9.57;;;6.07;;
2486;SDS011;1254;49.144;8.212;2023-04-15T07:23:57;10.98;;;6.25;;
2486;SDS011;1254;49.144;8.212;2023-04-15T07:26:26;11.30;;;5.90;;
2486;SDS011;1254;49.144;8.212;2023-04-15T07:28:56;10.27;;;6.80;;
2486;SDS011;1254;49.144;8.212;2023-04-15T07:31:25;7.38;;;5.95;;
2486;SDS011;1254;49.144;8.212;2023-04-15T07:33:55;7.55;;;6.03;;
2486;SDS011;1254;49.144;8.212;2023-04-15T07:36:24;6.10;;;5.35;;
2486;SDS011;1254;49.144;8.212;2023-04-15T07:38:57;7.68;;;5.72;;
2486;SDS011;1254;49.144;8.212;2023-04-15T07:41:28;8.82;;;6.10;;
2486;SDS011;1254;49.144;8.212;2023-04-15T07:43:58;12.45;;;7.32;;
2486;SDS011;1254;49.144;8.212;2023-04-15T07:46:27;9.00;;;6.72;;
2486;SDS011;1254;49.144;8.212;2023-04-15T07:48:57;6.80;;;6.20;;
2486;SDS011;1254;49.144;8.212;2023-04-15T07:51:26;9.02;;;6.97;;
2486;SDS011;1254;49.144;8.212;2023-04-15T07:53:58;12.00;;;6.60;;
2486;SDS011;1254;49.144;8.212;2023-04-15T07:56:28;11.23;;;7.63;;
2486;SDS011;1254;49.144;8.212;2023-04-15T07:58:57;12.48;;;6.88;;
2486;SDS011;1254;49.144;8.212;2023-04-15T08:01:28;11.80;;;7.28;;
2486;SDS011;1254;49.144;8.212;2023-04-15T08:03:57;11.85;;;8.30;;
2486;SDS011;1254;49.144;8.212;2023-04-15T08:06:27;11.30;;;7.80;;
2486;SDS011;1254;49.144;8.212;2023-04-15T08:08:59;12.20;;;7.95;;
2486;SDS011;1254;49.144;8.212;2023-04-15T08:11:28;11.65;;;8.27;;
2486;SDS011;1254;49.144;8.212;2023-04-15T08:13:58;8.73;;;7.88;;
2486;SDS011;1254;49.144;8.212;2023-04-15T08:16:27;15.07;;;8.50;;
2486;SDS011;1254;49.144;8.212;2023-04-15T08:18:57;9.23;;;8.35;;
2486;SDS011;1254;49.144;8.212;2023-04-15T08:21:26;8.95;;;8.05;;
2486;SDS011;1254;49.144;8.212;2023-04-15T08:23:58;9.75;;;8.80;;
2486;SDS011;1254;49.144;8.212;2023-04-15T08:26:28;9.10;;;8.20;;
2486;SDS011;1254;49.144;8.212;2023-04-15T08:28:57;9.67;;;8.80;;
2486;SDS011;1254;49.144;8.212;2023-04-15T08:31:27;10.50;;;9.60;;
2486;SDS011;1254;49.144;8.212;2023-04-15T08:33:57;10.32;;;9.55;;
2486;SDS011;1254;49.144;8.212;2023-04-15T08:36:27;14.30;;;13.00;;
2486;SDS011;1254;49.144;8.212;2023-04-15T08:38:56;11.27;;;10.13;;
2486;SDS011;1254;49.144;8.212;2023-04-15T08:41:30;11.83;;;10.90;;
2486;SDS011;1254;49.144;8.212;2023-04-15T08:44:03;11.47;;;10.57;;
2486;SDS011;1254;49.144;8.212;2023-04-15T08:46:33;12.50;;;10.40;;
2486;SDS011;1254;49.144;8.212;2023-04-15T08:49:03;11.07;;;10.13;;
2486;SDS011;1254;49.144;8.212;2023-04-15T08:51:33;12.13;;;10.90;;
2486;SDS011;1254;49.144;8.212;2023-04-15T08:54:03;15.77;;;12.17;;
2486;SDS011;1254;49.144;8.212;2023-04-15T08:56:34;12.57;;;11.48;;
2486;SDS011;1254;49.144;8.212;2023-04-15T08:59:06;14.43;;;10.37;;
2486;SDS011;1254;49.144;8.212;2023-04-15T09:01:37;13.10;;;11.87;;
2486;SDS011;1254;49.144;8.212;2023-04-15T09:04:07;11.93;;;10.80;;
2486;SDS011;1254;49.144;8.212;2023-04-15T09:06:38;12.43;;;11.37;;
2486;SDS011;1254;49.144;8.212;2023-04-15T09:09:08;15.97;;;11.90;;
2486;SDS011;1254;49.144;8.212;2023-04-15T09:11:39;15.53;;;11.30;;
2486;SDS011;1254;49.144;8.212;2023-04-15T09:14:09;11.77;;;10.97;;
2486;SDS011;1254;49.144;8.212;2023-04-15T09:16:54;12.00;;;10.90;;
2486;SDS011;1254;49.144;8.212;2023-04-15T09:19:24;12.60;;;11.43;;
2486;SDS011;1254;49.144;8.212;2023-04-15T09:21:55;11.50;;;10.40;;
2486;SDS011;1254;49.144;8.212;2023-04-15T09:24:25;12.97;;;11.97;;
2486;SDS011;1254;49.144;8.212;2023-04-15T09:26:56;16.17;;;14.70;;
2486;SDS011;1254;49.144;8.212;2023-04-15T09:29:26;12.40;;;11.47;;
2486;SDS011;1254;49.144;8.212;2023-04-15T09:31:56;13.20;;;11.90;;
2486;SDS011;1254;49.144;8.212;2023-04-15T09:34:34;13.63;;;12.13;;
2486;SDS011;1254;49.144;8.212;2023-04-15T09:37:03;12.90;;;11.80;;
2486;SDS011;1254;49.144;8.212;2023-04-15T09:39:46;14.30;;;12.97;;
2486;SDS011;1254;49.144;8.212;2023-04-15T09:42:18;13.80;;;12.53;;
2486;SDS011;1254;49.144;8.212;2023-04-15T09:44:50;13.60;;;12.57;;
2486;SDS011;1254;49.144;8.212;2023-04-15T09:47:29;13.43;;;12.23;;
2486;SDS011;1254;49.144;8.212;2023-04-15T09:49:59;13.40;;;12.30;;
2486;SDS011;1254;49.144;8.212;2023-04-15T09:52:28;13.97;;;12.57;;
2486;SDS011;1254;49.144;8.212;2023-04-15T09:54:58;13.70;;;12.77;;
2486;SDS011;1254;49.144;8.212;2023-04-15T09:57:34;14.30;;;13.03;;
2486;SDS011;1254;49.144;8.212;2023-04-15T10:00:04;13.53;;;12.43;;
2486;SDS011;1254;49.144;8.212;2023-04-15T10:02:34;14.03;;;13.13;;
2486;SDS011;1254;49.144;8.212;2023-04-15T10:05:04;14.50;;;13.30;;
2486;SDS011;1254;49.144;8.212;2023-04-15T10:07:34;13.53;;;12.27;;
2486;SDS011;1254;49.144;8.212;2023-04-15T10:10:04;13.73;;;12.93;;
2486;SDS011;1254;49.144;8.212;2023-04-15T10:12:37;13.60;;;12.73;;
2486;SDS011;1254;49.144;8.212;2023-04-15T10:15:11;13.97;;;12.60;;
2486;SDS011;1254;49.144;8.212;2023-04-15T10:17:43;13.77;;;12.87;;
2486;SDS011;1254;49.144;8.212;2023-04-15T10:20:13;13.20;;;12.20;;
2486;SDS011;1254;49.144;8.212;2023-04-15T10:22:43;14.03;;;12.93;;
2486;SDS011;1254;49.144;8.212;2023-04-15T10:25:13;13.23;;;12.43;;
2486;SDS011;1254;49.144;8.212;2023-04-15T10:27:44;13.10;;;12.30;;
2486;SDS011;1254;49.144;8.212;2023-04-15T10:30:15;14.70;;;13.70;;
2486;SDS011;1254;49.144;8.212;2023-04-15T10:32:45;13.80;;;12.90;;
2486;SDS011;1254;49.144;8.212;2023-04-15T10:35:16;14.03;;;13.03;;
2486;SDS011;1254;49.144;8.212;2023-04-15T10:37:45;13.67;;;12.67;;
2486;SDS011;1254;49.144;8.212;2023-04-15T10:40:25;12.90;;;12.13;;
2486;SDS011;1254;49.144;8.212;2023-04-15T10:42:57;14.90;;;13.87;;
2486;SDS011;1254;49.144;8.212;2023-04-15T10:45:27;14.80;;;13.70;;
2486;SDS011;1254;49.144;8.212;2023-04-15T10:47:57;12.80;;;12.00;;
2486;SDS011;1254;49.144;8.212;2023-04-15T10:50:29;13.67;;;12.57;;
2486;SDS011;1254;49.144;8.212;2023-04-15T10:53:01;14.47;;;13.40;;
2486;SDS011;1254;49.144;8.212;2023-04-15T10:55:31;13.43;;;12.73;;
2486;SDS011;1254;49.144;8.212;2023-04-15T10:58:03;14.20;;;13.30;;
2486;SDS011;1254;49.144;8.212;2023-04-15T11:00:32;14.33;;;13.40;;
2486;SDS011;1254;49.144;8.212;2023-04-15T11:03:06;13.27;;;12.47;;
2486;SDS011;1254;49.144;8.212;2023-04-15T11:08:51;13.53;;;12.73;;
2486;SDS011;1254;49.144;8.212;2023-04-15T11:11:19;12.37;;;11.70;;
2486;SDS011;1254;49.144;8.212;2023-04-15T11:13:51;13.40;;;12.40;;
2486;SDS011;1254;49.144;8.212;2023-04-15T11:16:21;14.30;;;13.10;;
2486;SDS011;1254;49.144;8.212;2023-04-15T11:18:54;14.00;;;13.10;;
2486;SDS011;1254;49.144;8.212;2023-04-15T11:21:24;14.50;;;11.90;;
2486;SDS011;1254;49.144;8.212;2023-04-15T11:23:54;12.63;;;11.87;;
2486;SDS011;1254;49.144;8.212;2023-04-15T11:26:25;15.00;;;14.07;;
2486;SDS011;1254;49.144;8.212;2023-04-15T11:28:55;13.17;;;12.37;;
2486;SDS011;1254;49.144;8.212;2023-04-15T11:31:26;14.17;;;13.07;;
2486;SDS011;1254;49.144;8.212;2023-04-15T11:33:57;13.37;;;12.57;;
2486;SDS011;1254;49.144;8.212;2023-04-15T11:36:28;14.20;;;13.10;;
2486;SDS011;1254;49.144;8.212;2023-04-15T11:38:58;13.27;;;12.30;;
2486;SDS011;1254;49.144;8.212;2023-04-15T11:41:27;14.03;;;13.03;;
2486;SDS011;1254;49.144;8.212;2023-04-15T11:43:58;14.30;;;13.60;;
2486;SDS011;1254;49.144;8.212;2023-04-15T11:46:28;14.60;;;13.80;;
2486;SDS011;1254;49.144;8.212;2023-04-15T11:48:58;16.37;;;15.17;;
2486;SDS011;1254;49.144;8.212;2023-04-15T11:51:30;14.27;;;13.37;;
2486;SDS011;1254;49.144;8.212;2023-04-15T11:53:59;15.40;;;14.30;;
2486;SDS011;1254;49.144;8.212;2023-04-15T11:56:27;14.53;;;13.73;;
2486;SDS011;1254;49.144;8.212;2023-04-15T11:58:57;14.67;;;13.77;;
2486;SDS011;1254;49.144;8.212;2023-04-15T12:01:34;15.00;;;13.87;;
2486;SDS011;1254;49.144;8.212;2023-04-15T12:04:09;14.07;;;13.27;;
2486;SDS011;1254;49.144;8.212;2023-04-15T12:06:37;14.20;;;13.40;;
2486;SDS011;1254;49.144;8.212;2023-04-15T12:09:07;14.93;;;14.13;;
2486;SDS011;1254;49.144;8.212;2023-04-15T12:11:36;15.07;;;14.07;;
2486;SDS011;1254;49.144;8.212;2023-04-15T12:14:06;16.20;;;15.00;;
2486;SDS011;1254;49.144;8.212;2023-04-15T12:16:37;15.63;;;14.70;;
2486;SDS011;1254;49.144;8.212;2023-04-15T12:19:06;15.77;;;14.77;;
2486;SDS011;1254;49.144;8.212;2023-04-15T12:21:35;15.60;;;14.67;;
2486;SDS011;1254;49.144;8.212;2023-04-15T12:24:04;15.70;;;14.80;;
2486;SDS011;1254;49.144;8.212;2023-04-15T12:26:34;16.10;;;14.70;;
2486;SDS011;1254;49.144;8.212;2023-04-15T12:29:03;14.77;;;13.87;;
2486;SDS011;1254;49.144;8.212;2023-04-15T12:31:32;15.00;;;14.10;;
2486;SDS011;1254;49.144;8.212;2023-04-15T12:34:02;14.53;;;13.60;;
2486;SDS011;1254;49.144;8.212;2023-04-15T12:36:30;15.90;;;14.60;;
2486;SDS011;1254;49.144;8.212;2023-04-15T12:39:02;17.07;;;15.60;;
2486;SDS011;1254;49.144;8.212;2023-04-15T12:41:31;15.00;;;13.90;;
2486;SDS011;1254;49.144;8.212;2023-04-15T12:43:59;14.43;;;13.43;;
2486;SDS011;1254;49.144;8.212;2023-04-15T12:46:28;14.23;;;13.40;;
2486;SDS011;1254;49.144;8.212;2023-04-15T12:48:56;14.40;;;13.27;;
2486;SDS011;1254;49.144;8.212;2023-04-15T12:51:25;14.30;;;13.40;;
2486;SDS011;1254;49.144;8.212;2023-04-15T12:53:54;14.90;;;13.90;;
2486;SDS011;1254;49.144;8.212;2023-04-15T12:56:22;14.87;;;13.77;;
2486;SDS011;1254;49.144;8.212;2023-04-15T12:58:50;15.37;;;14.50;;
2486;SDS011;1254;49.144;8.212;2023-04-15T13:01:18;14.50;;;13.53;;
2486;SDS011;1254;49.144;8.212;2023-04-15T13:03:47;14.27;;;13.30;;
2486;SDS011;1254;49.144;8.212;2023-04-15T13:06:16;16.00;;;14.93;;
2486;SDS011;1254;49.144;8.212;2023-04-15T13:08:46;14.27;;;13.57;;
2486;SDS011;1254;49.144;8.212;2023-04-15T13:11:14;14.27;;;13.47;;
2486;SDS011;1254;49.144;8.212;2023-04-15T13:13:42;15.47;;;14.27;;
2486;SDS011;1254;49.144;8.212;2023-04-15T13:16:10;15.53;;;14.33;;
2486;SDS011;1254;49.144;8.212;2023-04-15T13:18:38;15.87;;;14.70;;
2486;SDS011;1254;49.144;8.212;2023-04-15T13:21:07;14.87;;;13.77;;
2486;SDS011;1254;49.144;8.212;2023-04-15T13:23:35;14.90;;;13.77;;
2486;SDS011;1254;49.144;8.212;2023-04-15T13:26:05;14.93;;;13.53;;
2486;SDS011;1254;49.144;8.212;2023-04-15T13:28:33;14.60;;;13.80;;
2486;SDS011;1254;49.144;8.212;2023-04-15T13:31:01;14.47;;;13.67;;
2486;SDS011;1254;49.144;8.212;2023-04-15T13:33:30;15.40;;;14.17;;
2486;SDS011;1254;49.144;8.212;2023-04-15T13:35:58;14.53;;;13.73;;
2486;SDS011;1254;49.144;8.212;2023-04-15T13:38:26;15.30;;;14.50;;
2486;SDS011;1254;49.144;8.212;2023-04-15T13:40:54;14.20;;;13.40;;
2486;SDS011;1254;49.144;8.212;2023-04-15T13:43:24;13.83;;;13.13;;
2486;SDS011;1254;49.144;8.212;2023-04-15T13:45:52;13.27;;;12.47;;
2486;SDS011;1254;49.144;8.212;2023-04-15T13:48:20;14.00;;;12.93;;
2486;SDS011;1254;49.144;8.212;2023-04-15T13:50:48;14.47;;;13.57;;
2486;SDS011;1254;49.144;8.212;2023-04-15T13:53:17;13.77;;;12.90;;
2486;SDS011;1254;49.144;8.212;2023-04-15T13:55:45;13.43;;;12.73;;
2486;SDS011;1254;49.144;8.212;2023-04-15T13:58:13;14.47;;;13.33;;
2486;SDS011;1254;49.144;8.212;2023-04-15T14:00:42;13.67;;;12.67;;
2486;SDS011;1254;49.144;8.212;2023-04-15T14:03:11;14.10;;;13.30;;
2486;SDS011;1254;49.144;8.212;2023-04-15T14:05:39;12.80;;;12.13;;
2486;SDS011;1254;49.144;8.212;2023-04-15T14:08:07;13.47;;;12.67;;
2486;SDS011;1254;49.144;8.212;2023-04-15T14:10:35;13.50;;;12.60;;
2486;SDS011;1254;49.144;8.212;2023-04-15T14:13:04;13.60;;;12.70;;
2486;SDS011;1254;49.144;8.212;2023-04-15T14:15:32;12.60;;;11.90;;
2486;SDS011;1254;49.144;8.212;2023-04-15T14:18:01;12.93;;;12.13;;
2486;SDS011;1254;49.144;8.212;2023-04-15T14:20:30;12.63;;;11.93;;
2486;SDS011;1254;49.144;8.212;2023-04-15T14:22:58;13.30;;;12.50;;
2486;SDS011;1254;49.144;8.212;2023-04-15T14:25:26;13.03;;;12.33;;
2486;SDS011;1254;49.144;8.212;2023-04-15T14:27:54;13.40;;;12.20;;
2486;SDS011;1254;49.144;8.212;2023-04-15T14:30:22;14.30;;;13.27;;
2486;SDS011;1254;49.144;8.212;2023-04-15T14:32:50;13.47;;;12.57;;
2486;SDS011;1254;49.144;8.212;2023-04-15T14:35:20;19.67;;;17.63;;
2486;SDS011;1254;49.144;8.212;2023-04-15T14:37:49;13.97;;;12.87;;
2486;SDS011;1254;49.144;8.212;2023-04-15T14:40:18;14.27;;;13.40;;
2486;SDS011;1254;49.144;8.212;2023-04-15T14:42:46;14.53;;;13.83;;
2486;SDS011;1254;49.144;8.212;2023-04-15T14:45:14;13.40;;;12.67;;
2486;SDS011;1254;49.144;8.212;2023-04-15T14:47:42;12.73;;;11.90;;
2486;SDS011;1254;49.144;8.212;2023-04-15T14:50:11;13.80;;;13.20;;
2486;SDS011;1254;49.144;8.212;2023-04-15T14:52:40;13.03;;;12.43;;
2486;SDS011;1254;49.144;8.212;2023-04-15T14:55:09;12.63;;;11.93;;
2486;SDS011;1254;49.144;8.212;2023-04-15T14:57:38;12.77;;;12.17;;
2486;SDS011;1254;49.144;8.212;2023-04-15T15:00:06;11.47;;;11.07;;
2486;SDS011;1254;49.144;8.212;2023-04-15T15:02:37;12.97;;;12.27;;
2486;SDS011;1254;49.144;8.212;2023-04-15T15:05:08;12.13;;;11.60;;
2486;SDS011;1254;49.144;8.212;2023-04-15T15:07:37;12.80;;;12.20;;
2486;SDS011;1254;49.144;8.212;2023-04-15T15:10:07;11.47;;;11.07;;
2486;SDS011;1254;49.144;8.212;2023-04-15T15:12:35;13.00;;;12.40;;
2486;SDS011;1254;49.144;8.212;2023-04-15T15:15:04;12.87;;;12.33;;
2486;SDS011;1254;49.144;8.212;2023-04-15T15:17:33;12.90;;;12.30;;
2486;SDS011;1254;49.144;8.212;2023-04-15T15:20:02;11.73;;;11.23;;
2486;SDS011;1254;49.144;8.212;2023-04-15T15:22:30;11.40;;;10.63;;